Flight Track Log - Related Links

Times and Time Zones

All times are in EDT time to prevent confusion due to time zone crossing. See the UCA597 flight status page for this flight to view local times or setup timezone preferences in your user account.

Time Position Orientation Groundspeed Altitude Reporting Facility
EDT Latitude Longitude Course Direction KTS MPH feet Rate Location/Type
Sun 05:46:59 PM 38.9833 -77.4333 North 156 180 2,500  Level Potomac TRACON
Sun 05:47:59 PM 39.0333 -77.4500 345° North 175 201 4,100 1,429 Climbing Potomac TRACON
Sun 05:49:05 PM 39.0833 -77.4500 360° North 191 220 5,500 1,417 Climbing Potomac TRACON
Sun 05:50:06 PM 39.1500 -77.4500 360° North 201 231 7,100 1,537 Climbing Potomac TRACON
Sun 05:51:06 PM 39.2000 -77.4500 360° North 203 234 8,600 1,579 Climbing Potomac TRACON
Sun 05:52:00 PM 39.3671 -77.4500 North  Level FlightAware Approximate
Sun 05:52:00 PM 39.2500 -77.4500 360° North 204 235 10,100  Level Potomac TRACON
Sun 05:54:22 PM 39.3844 -77.4578 357° North 212 244 13,000 1,366 Climbing Washington Center
Sun 05:55:22 PM 39.4367 -77.4564 North 212 244 14,700 1,488 Climbing Washington Center
Sun 05:56:23 PM 39.4972 -77.4581 359° North 207 238 16,000 639 Climbing Washington Center
Sun 05:57:24 PM 39.5658 -77.4569 North 219 252 16,000 466 Level Washington Center
Sun 05:58:06 PM 39.6303 -77.4508 North 260 299 16,800 1,320 Climbing New York Center
Sun 05:59:04 PM 39.6886 -77.4536 358° North 245 282 18,200 1,109 Climbing New York Center
Sun 06:00:05 PM 39.7533 -77.4492 North 231 266 19,000 397 Climbing New York Center
Sun 06:01:05 PM 39.8264 -77.4156 19° North 243 280 19,000  Level New York Center
Sun 06:02:05 PM 39.9033 -77.3794 20° North 278 320 19,000  Level New York Center
Sun 06:03:04 PM 39.9831 -77.3356 23° Northeast 305 351 19,000  Level New York Center
Sun 06:04:05 PM 40.0625 -77.2942 22° Northeast 305 351 19,000  Level New York Center
Sun 06:05:03 PM 40.1442 -77.2503 22° Northeast 305 351 19,000  Level New York Center
Sun 06:06:05 PM 40.2214 -77.2083 23° Northeast 305 351 19,000  Level New York Center
Sun 06:07:03 PM 40.2942 -77.1717 21° North 305 351 19,000  Level New York Center
Sun 06:08:04 PM 40.3825 -77.1225 23° Northeast 305 351 19,000  Level New York Center
Sun 06:09:07 PM 40.4533 -77.0828 23° Northeast 305 351 19,000 -350 Level New York Center
Sun 06:10:04 PM 40.5456 -77.0367 21° North 305 351 18,300 -610 Descending New York Center
Sun 06:11:05 PM 40.6164 -76.9964 23° Northeast 305 351 17,800 -590 Descending New York Center
Sun 06:12:06 PM 40.7064 -76.9472 22° Northeast 305 351 17,100 -756 Descending New York Center
Sun 06:13:04 PM 40.7772 -76.9097 22° Northeast 305 351 16,300 -814 Descending New York Center
Sun 06:14:04 PM 40.8608 -76.8650 22° Northeast 305 351 15,500 -645 Descending New York Center
Sun 06:15:05 PM 40.9294 -76.8272 23° Northeast 300 345 15,000 -246 Descending New York Center
Sun 06:16:06 PM 41.0089 -76.7822 23° Northeast 287 330 15,000  Level New York Center
Sun 06:17:04 PM 41.0794 -76.7442 22° Northeast 280 322 15,000  Level New York Center
Sun 06:18:06 PM 41.1481 -76.7061 23° Northeast 275 316 15,000 50 Level New York Center
Sun 06:19:03 PM 41.2189 -76.6628 25° Northeast 275 316 15,100 51 Climbing New York Center
Sun 06:20:04 PM 41.2897 -76.6247 22° Northeast 275 316 15,100 -98 Level New York Center
Sun 06:21:06 PM 41.3558 -76.5892 22° Northeast 275 316 14,900 -537 Descending New York Center
Sun 06:22:07 PM 41.4308 -76.5458 23° Northeast 285 328 14,000 -966 Descending New York Center
Sun 06:23:04 PM 41.5186 -76.5006 21° North 292 336 13,000 -958 Descending New York Center
Sun 06:24:06 PM 41.5914 -76.4569 24° Northeast 297 342 12,100 -850 Descending New York Center
Sun 06:25:04 PM 41.6622 -76.4158 23° Northeast 286 329 11,300 -850 Descending New York Center
Sun 06:26:06 PM 41.7261 -76.3822 21° North 277 319 10,400 -1,109 Descending New York Center
Sun 06:27:03 PM 41.8033 -76.3386 23° Northeast 271 312 9,100 -1,119 Descending New York Center
Sun 06:28:04 PM 41.8697 -76.2997 24° Northeast 266 306 8,200 -934 Descending New York Center
Sun 06:29:05 PM 41.9261 -76.2458 35° Northeast 254 292 7,200 -1,008 Descending New York Center
Sun 06:30:03 PM 41.9742 -76.1994 36° Northeast 232 267 6,200 -950 Descending New York Center
Sun 06:31:05 PM 42.0203 -76.1447 41° Northeast 221 254 5,300 -927 Descending New York Center
Sun 06:32:06 PM 42.0644 -76.0925 41° Northeast 215 247 4,300 -966 Descending New York Center
Sun 06:33:03 PM 42.1083 -76.0400 42° Northeast 209 241 3,400 -513 Descending New York Center
Sun 06:34:03 PM 42.1433 -76.0008 40° Northeast 185 213 3,300 -446 Descending New York Center
Sun 06:35:04 PM 42.1714 -75.9781 31° Northeast 150 173 2,500 -600 Descending New York Center
Sun 06:36:03 PM 42.2083 -75.9444 34° Northeast 137 158 2,100 6,250 Descending New York Center
Sun 06:37:04 PM 42.2406 -75.9192 30° Northeast 137 158 15,000 6,344 Climbing New York Center
Sun 06:38:05 PM 42.2731 -75.8936 30° Northeast 137 158 15,000  Level New York Center
Sun 06:40:00 PM 42.2000 -75.9667 223° Southwest  Level FlightAware Approximate
Sun 06:47:00 PM 42.2084 -75.9796 223° Southwest  Level Estimated
Sun 06:48:00 PM 42.2084 -75.9796 223° Southwest  Level Estimated
Sun 06:49:00 PM 42.2084 -75.9796 223° Southwest  Level Estimated
Sun 06:50:00 PM 42.2084 -75.9796 223° Southwest  Level Estimated
Sun 06:51:00 PM 42.2084 -75.9796 223° Southwest  Level Estimated
Sun 06:52:00 PM 42.2084 -75.9796 223° Southwest  Level Estimated
Sun 06:53:00 PM 42.2084 -75.9796 223° Southwest  Level Estimated
Sun 06:54:00 PM 42.2084 -75.9796 223° Southwest  Level Estimated
Sun 06:55:00 PM 42.2084 -75.9796 223° Southwest  Level Estimated
Sun 06:56:00 PM 42.2084 -75.9796 223° Southwest  Level Estimated

Login

Don't have an account? Register now (free) for customized features, flight alerts, and more!